createdAt,value
2019-04-20T00:00:54.667Z,36.98
2019-04-20T00:03:23.715Z,36.96
2019-04-20T00:05:53.113Z,37.12
2019-04-20T00:08:26.365Z,37.00
2019-04-20T00:11:00.177Z,37.26
2019-04-20T00:13:33.122Z,37.08
2019-04-20T00:15:53.636Z,37.36
2019-04-20T00:18:28.062Z,37.24
2019-04-20T00:21:00.348Z,38.05
2019-04-20T00:23:33.472Z,37.66
2019-04-20T00:26:32.900Z,39.16
2019-04-20T00:29:07.539Z,38.23
2019-04-20T00:31:39.310Z,38.20
2019-04-20T00:33:59.154Z,38.46
2019-04-20T00:36:20.154Z,38.45
2019-04-20T00:38:53.421Z,38.39
2019-04-20T00:41:21.221Z,39.16
2019-04-20T00:43:49.414Z,39.75
2019-04-20T00:46:26.420Z,39.53
2019-04-20T00:48:55.955Z,39.72
2019-04-20T00:51:35.225Z,39.75
2019-04-20T00:53:52.345Z,39.24
2019-04-20T00:56:18.709Z,39.42
2019-04-20T00:58:55.780Z,39.58
2019-04-20T01:01:37.844Z,39.69
2019-04-20T01:04:10.980Z,40.12
2019-04-20T01:06:49.210Z,39.87
2019-04-20T01:09:20.341Z,40.32
2019-04-20T01:11:50.119Z,40.36
2019-04-20T01:14:27.343Z,40.90
2019-04-20T01:16:56.896Z,42.51
2019-04-20T01:19:20.649Z,41.58
2019-04-20T01:21:59.203Z,40.84
2019-04-20T01:24:27.594Z,41.13
2019-04-20T01:26:55.160Z,41.54
2019-04-20T01:29:27.970Z,41.34
2019-04-20T01:32:06.132Z,40.85
2019-04-20T01:34:37.987Z,41.78
2019-04-20T01:37:05.636Z,41.29
2019-04-20T01:39:28.717Z,42.21
2019-04-20T01:41:52.007Z,41.70
2019-04-20T01:44:27.006Z,41.67
2019-04-20T01:46:55.226Z,41.71
2019-04-20T01:49:25.387Z,41.80
2019-04-20T01:52:00.693Z,42.07
2019-04-20T01:54:41.782Z,41.93
2019-04-20T01:57:02.651Z,41.90
2019-04-20T01:59:44.883Z,42.58
2019-04-20T02:02:16.579Z,42.14
2019-04-20T02:04:47.299Z,42.26
2019-04-20T02:07:18.442Z,42.81
2019-04-20T02:09:51.412Z,45.54
2019-04-20T02:12:21.896Z,44.64
2019-04-20T02:14:51.764Z,44.59
2019-04-20T02:17:25.833Z,44.25
2019-04-20T02:20:05.411Z,44.14
2019-04-20T02:22:34.224Z,43.82
2019-04-20T02:24:46.724Z,44.14
2019-04-20T02:27:20.648Z,43.99
2019-04-20T02:30:13.517Z,43.51
2019-04-20T02:32:55.610Z,43.97
2019-04-20T02:35:27.870Z,44.10
2019-04-20T02:40:45.179Z,44.37
2019-04-20T02:43:09.477Z,44.26
2019-04-20T02:48:01.239Z,44.29
2019-04-20T02:50:30.435Z,44.35
2019-04-20T02:53:04.539Z,44.25
2019-04-20T03:00:25.420Z,44.98
2019-04-20T03:02:43.081Z,45.39
2019-04-20T03:05:13.339Z,44.95
2019-04-20T03:07:50.346Z,45.46
2019-04-20T03:10:17.959Z,45.41
2019-04-20T03:12:50.584Z,45.11
2019-04-20T03:15:22.166Z,46.15
2019-04-20T03:17:51.216Z,45.88
2019-04-20T03:20:25.521Z,45.88
2019-04-20T03:23:11.708Z,45.46
2019-04-20T03:25:43.110Z,45.68
2019-04-20T03:28:10.315Z,46.11
2019-04-20T03:35:51.111Z,46.68
2019-04-20T03:38:14.737Z,47.19
2019-04-20T03:40:37.321Z,47.34
2019-04-20T03:42:54.810Z,47.29
2019-04-20T03:45:25.364Z,47.21
2019-04-20T03:48:06.916Z,47.20
2019-04-20T03:50:46.352Z,48.01
2019-04-20T03:53:19.248Z,47.92
2019-04-20T03:55:47.495Z,48.23
2019-04-20T03:58:19.809Z,48.93
2019-04-20T04:00:59.484Z,51.09
2019-04-20T04:03:47.583Z,48.15
2019-04-20T04:06:10.533Z,49.95
2019-04-20T04:08:37.287Z,48.51
2019-04-20T04:11:16.327Z,49.28
2019-04-20T04:13:29.518Z,49.11
2019-04-20T04:16:03.256Z,49.30
2019-04-20T04:18:35.336Z,49.96
2019-04-20T04:21:03.857Z,49.32
2019-04-20T04:23:47.110Z,48.85
2019-04-20T04:26:16.097Z,49.45
2019-04-20T04:28:46.348Z,50.22
2019-04-20T04:31:16.500Z,50.01
2019-04-20T04:33:55.842Z,50.20
2019-04-20T04:36:15.576Z,50.02
2019-04-20T04:38:56.120Z,50.05
2019-04-20T04:43:53.983Z,50.72
2019-04-20T04:46:01.705Z,50.88
2019-04-20T04:48:35.730Z,50.52
2019-04-20T04:51:08.393Z,51.68
2019-04-20T04:53:45.215Z,50.80
2019-04-20T04:56:08.757Z,51.13
2019-04-20T04:58:31.939Z,50.94
2019-04-20T05:01:05.688Z,50.98
2019-04-20T05:03:54.165Z,51.66
2019-04-20T05:06:25.286Z,51.75
2019-04-20T05:08:43.611Z,53.10
2019-04-20T05:11:08.993Z,52.42
2019-04-20T05:13:46.745Z,51.82
2019-04-20T05:16:26.986Z,53.94
2019-04-20T05:19:10.542Z,52.82
2019-04-20T05:21:25.479Z,52.75
2019-04-20T05:24:00.703Z,52.89
2019-04-20T05:26:42.415Z,52.93
2019-04-20T05:29:02.778Z,54.63
2019-04-20T05:31:23.223Z,55.48
2019-04-20T05:34:14.370Z,54.08
2019-04-20T05:36:42.653Z,52.50
2019-04-20T05:39:22.416Z,53.51
2019-04-20T05:41:41.748Z,52.60
2019-04-20T05:44:08.754Z,52.52
2019-04-20T05:46:47.673Z,52.02
2019-04-20T05:49:17.671Z,51.88
2019-04-20T05:51:46.189Z,52.49
2019-04-20T05:54:27.745Z,52.87
2019-04-20T05:56:47.847Z,51.46
2019-04-20T05:59:15.242Z,51.29
2019-04-20T06:01:52.777Z,51.08
2019-04-20T06:04:17.272Z,51.16
2019-04-20T06:06:49.423Z,50.83
2019-04-20T06:09:22.713Z,50.53
2019-04-20T06:12:04.557Z,51.27
2019-04-20T06:14:08.145Z,50.69
2019-04-20T06:16:55.744Z,50.13
2019-04-20T06:19:32.018Z,49.85
2019-04-20T06:22:00.990Z,49.24
2019-04-20T06:24:37.538Z,49.18
2019-04-20T06:27:19.588Z,48.53
2019-04-20T06:29:31.178Z,48.46
2019-04-20T06:32:06.591Z,47.64
2019-04-20T06:34:42.604Z,47.26
2019-04-20T06:37:19.448Z,46.40
2019-04-20T06:39:40.408Z,46.87
2019-04-20T06:42:09.905Z,46.74
2019-04-20T06:44:46.369Z,45.72
2019-04-20T06:54:58.125Z,44.41
2019-04-20T06:57:35.711Z,45.12
2019-04-20T07:00:10.228Z,44.25
2019-04-20T07:02:38.617Z,43.80
2019-04-20T07:05:05.651Z,42.71
2019-04-20T07:07:36.054Z,43.49
2019-04-20T07:10:15.128Z,43.25
2019-04-20T07:12:34.386Z,42.63
2019-04-20T07:14:55.625Z,41.97
2019-04-20T07:20:09.953Z,41.67
2019-04-20T07:23:03.598Z,41.34
2019-04-20T07:25:20.273Z,41.43
2019-04-20T07:27:49.685Z,40.23
2019-04-20T07:30:16.269Z,38.67
2019-04-20T07:32:54.907Z,39.97
2019-04-20T07:35:19.844Z,39.23
2019-04-20T07:40:20.367Z,39.29
2019-04-20T07:45:26.163Z,39.41
2019-04-20T07:50:18.667Z,40.23
2019-04-20T07:52:43.055Z,38.91
2019-04-20T07:57:47.131Z,38.42
2019-04-20T08:00:31.989Z,36.59
2019-04-20T08:03:18.376Z,38.18
2019-04-20T08:05:47.058Z,36.87
2019-04-20T08:08:27.162Z,35.44
2019-04-20T08:10:55.365Z,37.21
2019-04-20T08:13:35.957Z,35.50
2019-04-20T08:15:57.058Z,35.61
2019-04-20T08:20:57.656Z,34.95
2019-04-20T08:23:35.959Z,33.26
2019-04-20T08:25:47.329Z,31.90
2019-04-20T08:28:16.702Z,31.25
2019-04-20T08:31:09.283Z,31.65
2019-04-20T08:33:44.327Z,31.46
2019-04-20T08:36:18.339Z,29.78
2019-04-20T08:39:06.819Z,28.87
2019-04-20T08:41:12.934Z,29.49
2019-04-20T08:46:18.187Z,26.99
2019-04-20T08:48:46.104Z,28.87
2019-04-20T08:51:22.652Z,29.56
2019-04-20T08:53:46.783Z,27.82
2019-04-20T08:56:11.851Z,27.24
2019-04-20T08:58:29.533Z,26.24
2019-04-20T09:01:03.581Z,28.03
2019-04-20T09:03:37.563Z,26.81
2019-04-20T09:06:06.416Z,27.66
2019-04-20T09:08:43.607Z,27.23
2019-04-20T09:11:15.356Z,25.62
2019-04-20T09:13:38.925Z,26.67
2019-04-20T09:16:02.001Z,26.46
2019-04-20T09:18:43.346Z,26.79
2019-04-20T09:21:13.993Z,26.78
2019-04-20T09:23:45.086Z,26.22
2019-04-20T09:26:23.157Z,25.91
2019-04-20T09:28:53.454Z,25.58
2019-04-20T09:31:21.452Z,26.48
2019-04-20T09:33:55.636Z,26.23
2019-04-20T09:36:29.208Z,25.25
2019-04-20T09:39:12.109Z,26.28
2019-04-20T09:41:59.146Z,25.85
2019-04-20T09:44:08.889Z,24.58
2019-04-20T09:46:45.327Z,25.63
2019-04-20T09:49:18.848Z,25.70
2019-04-20T09:51:55.267Z,24.97
2019-04-20T09:54:27.045Z,24.97
2019-04-20T09:57:02.150Z,24.75
2019-04-20T09:59:28.982Z,24.57
2019-04-20T10:01:45.349Z,23.02
2019-04-20T10:04:09.204Z,22.74
2019-04-20T10:06:37.787Z,21.87
2019-04-20T10:09:09.574Z,23.36
2019-04-20T10:11:40.834Z,22.57
2019-04-20T10:14:08.371Z,21.40
2019-04-20T10:16:37.904Z,21.55
2019-04-20T10:19:07.847Z,20.21
2019-04-20T10:21:38.195Z,20.81
2019-04-20T10:24:06.767Z,19.64
2019-04-20T10:26:36.373Z,21.15
2019-04-20T10:29:05.707Z,20.53
2019-04-20T10:31:35.751Z,19.73
2019-04-20T10:34:04.683Z,19.23
2019-04-20T10:36:43.815Z,19.72
2019-04-20T10:39:12.915Z,19.48
2019-04-20T10:41:49.095Z,18.77
2019-04-20T10:44:12.343Z,18.95
2019-04-20T10:46:40.961Z,18.92
2019-04-20T10:49:09.807Z,18.66
2019-04-20T10:51:40.070Z,19.35
2019-04-20T10:54:08.818Z,19.84
2019-04-20T10:56:37.607Z,20.08
2019-04-20T10:59:06.086Z,20.04
2019-04-20T11:01:35.746Z,21.23
2019-04-20T11:04:04.911Z,20.67
2019-04-20T11:06:34.527Z,21.48
2019-04-20T11:09:04.680Z,21.83
2019-04-20T11:11:34.060Z,21.51
2019-04-20T11:14:11.543Z,21.20
2019-04-20T11:16:34.252Z,21.96
2019-04-20T11:19:03.306Z,22.30
2019-04-20T11:21:32.361Z,21.44
2019-04-20T11:24:02.266Z,23.33
2019-04-20T11:26:32.180Z,22.76
2019-04-20T11:29:02.108Z,22.84
2019-04-20T11:31:37.278Z,22.82
2019-04-20T11:34:01.039Z,24.42
2019-04-20T11:36:30.906Z,22.69
2019-04-20T11:39:00.503Z,23.30
2019-04-20T11:41:32.362Z,23.78
2019-04-20T11:43:59.822Z,24.20
2019-04-20T11:46:28.404Z,24.19
2019-04-20T11:48:57.302Z,25.11
2019-04-20T11:51:25.849Z,25.55
2019-04-20T11:53:54.447Z,24.59
2019-04-20T11:56:28.035Z,25.04
2019-04-20T11:58:53.213Z,24.97
2019-04-20T12:01:32.866Z,24.78
2019-04-20T12:04:01.745Z,26.16
2019-04-20T12:06:26.371Z,25.35
2019-04-20T12:08:54.947Z,24.84
2019-04-20T12:11:33.914Z,25.06
2019-04-20T12:13:54.492Z,25.21
2019-04-20T12:16:23.623Z,25.79
2019-04-20T12:18:52.495Z,25.57
2019-04-20T12:21:21.174Z,25.63
2019-04-20T12:23:49.660Z,26.50
2019-04-20T12:26:18.641Z,25.91
2019-04-20T12:28:47.554Z,26.24
2019-04-20T12:31:20.471Z,25.83
2019-04-20T12:33:46.582Z,25.85
2019-04-20T12:36:16.364Z,25.67
2019-04-20T12:38:46.126Z,26.08
2019-04-20T12:41:16.150Z,27.06
2019-04-20T12:43:45.725Z,26.46
2019-04-20T12:46:17.911Z,26.16
2019-04-20T12:48:44.612Z,26.10
2019-04-20T12:51:13.374Z,26.29
2019-04-20T12:53:42.609Z,27.12
2019-04-20T12:56:12.655Z,26.86
2019-04-20T12:58:43.371Z,26.34
2019-04-20T13:01:12.189Z,25.86
2019-04-20T13:03:41.535Z,25.73
2019-04-20T13:06:10.126Z,26.25
2019-04-20T13:08:46.012Z,25.85
2019-04-20T13:11:28.762Z,25.59
2019-04-20T13:14:16.709Z,25.51
2019-04-20T13:16:48.331Z,25.57
2019-04-20T13:19:15.517Z,25.24
2019-04-20T13:21:45.141Z,25.41
2019-04-20T13:24:13.686Z,25.61
2019-04-20T13:26:42.777Z,25.38
2019-04-20T13:29:11.434Z,25.33
2019-04-20T13:31:40.065Z,25.64
2019-04-20T13:34:09.633Z,25.85
2019-04-20T13:36:38.229Z,25.67
2019-04-20T13:39:08.233Z,26.05
2019-04-20T13:41:38.036Z,25.75
2019-04-20T13:44:08.236Z,26.09
2019-04-20T13:46:37.040Z,25.88
2019-04-20T13:49:06.929Z,25.50
2019-04-20T13:51:36.642Z,25.74
2019-04-20T13:54:06.309Z,25.52
2019-04-20T13:56:35.621Z,25.50
2019-04-20T13:59:21.583Z,26.01
2019-04-20T14:02:01.001Z,25.75
2019-04-20T14:04:32.744Z,25.72
2019-04-20T14:07:01.890Z,26.11
2019-04-20T14:09:30.468Z,26.13
2019-04-20T14:12:11.878Z,25.77
2019-04-20T14:14:29.216Z,25.91
2019-04-20T14:16:58.945Z,25.99
2019-04-20T14:19:27.616Z,25.83
2019-04-20T14:21:56.472Z,25.99
2019-04-20T14:24:25.044Z,26.03
2019-04-20T14:26:54.751Z,27.35
2019-04-20T14:29:23.307Z,26.98
2019-04-20T14:31:52.109Z,27.08
2019-04-20T14:34:20.767Z,27.24
2019-04-20T14:36:49.301Z,27.07
2019-04-20T14:39:18.299Z,27.32
2019-04-20T14:41:46.946Z,27.27
2019-04-20T14:44:16.128Z,27.56
2019-04-20T14:46:45.537Z,27.48
2019-04-20T14:49:14.720Z,27.83
2019-04-20T14:51:43.686Z,27.53
2019-04-20T14:54:13.756Z,27.79
2019-04-20T14:56:43.471Z,27.97
2019-04-20T14:59:19.971Z,27.68
2019-04-20T15:01:50.913Z,27.76
2019-04-20T15:04:22.058Z,27.98
2019-04-20T15:06:50.628Z,27.94
2019-04-20T15:09:19.212Z,28.32
2019-04-20T15:11:48.481Z,28.00
2019-04-20T15:14:18.576Z,28.09
2019-04-20T15:16:48.636Z,28.47
2019-04-20T15:19:18.936Z,28.40
2019-04-20T15:21:49.458Z,28.22
2019-04-20T15:24:18.145Z,28.02
2019-04-20T15:26:46.712Z,28.23
2019-04-20T15:29:15.213Z,28.02
2019-04-20T15:31:44.009Z,28.05
2019-04-20T15:34:12.939Z,28.28
2019-04-20T15:36:42.264Z,27.95
2019-04-20T15:39:11.431Z,28.13
2019-04-20T15:41:41.053Z,28.12
2019-04-20T15:44:11.252Z,28.70
2019-04-20T15:46:40.485Z,28.16
2019-04-20T15:49:10.278Z,27.99
2019-04-20T15:51:39.774Z,28.02
2019-04-20T15:54:09.509Z,27.94
2019-04-20T15:56:42.505Z,27.80
2019-04-20T15:59:08.495Z,28.29
2019-04-20T16:01:38.613Z,27.94
2019-04-20T16:04:22.871Z,27.96
2019-04-20T16:06:45.275Z,27.82
2019-04-20T16:09:15.634Z,27.48
2019-04-20T16:11:44.762Z,27.39
2019-04-20T16:14:13.674Z,27.37
2019-04-20T16:16:42.579Z,27.44
2019-04-20T16:19:25.852Z,27.37
2019-04-20T16:21:41.668Z,27.33
2019-04-20T16:24:12.942Z,26.54
2019-04-20T16:26:47.326Z,25.91
2019-04-20T16:29:15.887Z,25.32
2019-04-20T16:31:48.116Z,25.65
2019-04-20T16:34:15.946Z,24.64
2019-04-20T16:36:44.604Z,24.35
2019-04-20T16:39:14.447Z,24.70
2019-04-20T16:41:44.371Z,24.76
2019-04-20T16:44:13.479Z,24.67
2019-04-20T16:46:42.470Z,24.50
2019-04-20T16:49:11.032Z,24.53
2019-04-20T16:51:40.767Z,24.63
2019-04-20T16:54:10.099Z,24.64
2019-04-20T16:56:39.034Z,24.88
2019-04-20T16:59:10.271Z,24.98
2019-04-20T17:01:37.904Z,25.02
2019-04-20T17:04:11.133Z,25.16
2019-04-20T17:06:38.295Z,25.16
2019-04-20T17:09:07.507Z,25.45
2019-04-20T17:11:36.247Z,25.45
2019-04-20T17:14:06.527Z,25.37
2019-04-20T17:16:35.607Z,25.43
2019-04-20T17:19:04.211Z,25.53
2019-04-20T17:21:34.206Z,25.65
2019-04-20T17:24:03.677Z,25.72
2019-04-20T17:26:34.944Z,25.79
2019-04-20T17:29:05.972Z,25.89
2019-04-20T17:31:39.918Z,26.15
2019-04-20T17:34:27.094Z,26.09
2019-04-20T17:36:40.412Z,26.31
2019-04-20T17:39:13.438Z,26.68
2019-04-20T17:41:56.001Z,26.51
2019-04-20T17:44:29.137Z,26.45
2019-04-20T17:46:52.158Z,26.55
2019-04-20T17:49:27.655Z,26.82
2019-04-20T17:52:05.040Z,26.87
2019-04-20T17:54:29.363Z,27.43
2019-04-20T17:56:58.229Z,27.23
2019-04-20T17:59:26.723Z,27.38
2019-04-20T18:02:17.785Z,27.50
2019-04-20T18:07:31.225Z,27.82
2019-04-20T18:09:56.232Z,27.87
2019-04-20T18:12:15.472Z,28.43
2019-04-20T18:14:54.790Z,28.06
2019-04-20T18:17:25.766Z,28.29
2019-04-20T18:19:58.911Z,28.79
2019-04-20T18:22:27.856Z,28.36
2019-04-20T18:25:19.285Z,28.57
2019-04-20T18:27:41.105Z,28.93
2019-04-20T18:30:16.029Z,28.64
2019-04-20T18:32:31.491Z,29.03
2019-04-20T18:35:05.328Z,29.09
2019-04-20T18:37:32.749Z,29.22
2019-04-20T18:40:06.184Z,29.33
2019-04-20T18:42:38.108Z,29.18
2019-04-20T18:45:21.720Z,29.44
2019-04-20T18:47:49.667Z,30.50
2019-04-20T18:50:10.780Z,29.80
2019-04-20T18:52:33.791Z,30.10
2019-04-20T18:55:07.473Z,30.16
2019-04-20T18:57:34.331Z,30.20
2019-04-20T19:00:04.633Z,30.34
2019-04-20T19:02:40.111Z,30.66
2019-04-20T19:05:08.632Z,30.59
2019-04-20T19:07:42.538Z,31.30
2019-04-20T19:10:16.604Z,30.65
2019-04-20T19:12:49.670Z,30.68
2019-04-20T19:15:43.928Z,30.71
2019-04-20T19:18:06.980Z,30.58
2019-04-20T19:20:31.381Z,30.42
2019-04-20T19:23:02.154Z,30.82
2019-04-20T19:25:34.641Z,30.59
2019-04-20T19:28:02.938Z,30.49
2019-04-20T19:30:42.591Z,30.57
2019-04-20T19:33:19.036Z,30.51
2019-04-20T19:35:41.858Z,30.71
2019-04-20T19:38:10.358Z,30.58
2019-04-20T19:40:45.674Z,30.64
2019-04-20T19:43:15.947Z,30.61
2019-04-20T19:45:55.852Z,30.69
2019-04-20T19:48:17.458Z,30.83
2019-04-20T19:50:59.007Z,31.08
2019-04-20T19:53:26.423Z,31.28
2019-04-20T19:55:47.750Z,31.24
2019-04-20T19:58:19.160Z,32.10
2019-04-20T20:00:52.184Z,32.23
2019-04-20T20:03:21.600Z,32.22
2019-04-20T20:05:53.836Z,32.92
2019-04-20T20:08:24.375Z,33.28
2019-04-20T20:10:52.622Z,34.17
2019-04-20T20:13:27.368Z,32.66
2019-04-20T20:16:00.265Z,32.94
2019-04-20T20:18:40.717Z,33.45
2019-04-20T20:21:07.598Z,33.77
2019-04-20T20:23:24.003Z,34.03
2019-04-20T20:25:53.168Z,34.37
2019-04-20T20:28:32.295Z,34.12
2019-04-20T20:31:04.403Z,34.72
2019-04-20T20:33:39.228Z,34.23
2019-04-20T20:36:03.771Z,34.93
2019-04-20T20:38:31.499Z,34.50
2019-04-20T20:41:05.713Z,35.25
2019-04-20T20:43:40.677Z,34.77
2019-04-20T20:46:06.527Z,34.65
2019-04-20T20:48:38.277Z,34.61
2019-04-20T20:51:16.421Z,35.15
2019-04-20T20:53:41.443Z,35.69
2019-04-20T20:56:06.565Z,35.15
2019-04-20T20:58:43.322Z,34.95
2019-04-20T21:01:07.805Z,35.71
2019-04-20T21:03:31.222Z,35.47
2019-04-20T21:05:57.906Z,35.30
2019-04-20T21:08:26.484Z,35.45
2019-04-20T21:10:55.014Z,36.15
2019-04-20T21:13:28.374Z,36.41
2019-04-20T21:16:02.399Z,36.88
2019-04-20T21:18:44.895Z,36.22
2019-04-20T21:21:11.151Z,36.03
2019-04-20T21:23:36.828Z,35.89
2019-04-20T21:26:21.466Z,36.46
2019-04-20T21:28:41.974Z,36.18
2019-04-20T21:31:15.942Z,36.14
2019-04-20T21:33:42.916Z,35.87
2019-04-20T21:36:13.489Z,35.99
2019-04-20T21:38:43.346Z,35.90
2019-04-20T21:41:16.127Z,36.35
2019-04-20T21:43:44.404Z,36.82
2019-04-20T21:46:13.980Z,36.27
2019-04-20T21:48:57.153Z,36.83
2019-04-20T21:51:25.709Z,36.34
2019-04-20T21:53:44.276Z,36.40
2019-04-20T21:56:12.990Z,37.29
2019-04-20T21:58:48.263Z,36.08
2019-04-20T22:01:22.202Z,36.22
2019-04-20T22:03:44.602Z,37.62
2019-04-20T22:06:14.070Z,36.85
2019-04-20T22:08:47.532Z,37.11
2019-04-20T22:11:13.598Z,36.83
2019-04-20T22:13:44.582Z,37.15
2019-04-20T22:16:14.746Z,37.57
2019-04-20T22:18:52.939Z,36.57
2019-04-20T22:21:22.496Z,37.44
2019-04-20T22:24:01.840Z,36.77
2019-04-20T22:26:26.241Z,37.67
2019-04-20T22:28:44.599Z,36.99
2019-04-20T22:31:14.103Z,37.44
2019-04-20T22:33:45.078Z,37.09
2019-04-20T22:36:14.631Z,37.03
2019-04-20T22:39:03.428Z,36.88
2019-04-20T22:41:32.508Z,36.69
2019-04-20T22:44:08.606Z,37.78
2019-04-20T22:46:34.070Z,37.10
2019-04-20T22:49:21.056Z,37.27
2019-04-20T22:51:45.964Z,37.20
2019-04-20T22:54:16.909Z,36.84
2019-04-20T22:56:48.304Z,36.85
2019-04-20T22:59:11.014Z,37.31
2019-04-20T23:01:40.539Z,37.10
2019-04-20T23:04:04.395Z,37.27
2019-04-20T23:06:38.252Z,37.46
2019-04-20T23:09:07.484Z,37.17
2019-04-20T23:11:35.355Z,37.29
2019-04-20T23:14:04.693Z,38.06
2019-04-20T23:16:37.948Z,38.16
2019-04-20T23:19:04.440Z,37.76
2019-04-20T23:21:34.088Z,37.20
2019-04-20T23:24:07.875Z,38.61
2019-04-20T23:26:36.689Z,37.35
2019-04-20T23:29:03.235Z,38.01
2019-04-20T23:31:32.259Z,37.68
2019-04-20T23:34:09.186Z,37.79
2019-04-20T23:36:37.153Z,37.42
2019-04-20T23:39:03.118Z,37.60
2019-04-20T23:41:31.593Z,38.27
2019-04-20T23:44:06.198Z,37.96
2019-04-20T23:46:34.898Z,37.51
2019-04-20T23:49:27.205Z,37.72
2019-04-20T23:52:11.886Z,37.54
2019-04-20T23:54:27.424Z,38.27
2019-04-20T23:56:51.574Z,37.71
2019-04-20T23:59:25.225Z,37.93
